createdAt,value
2023-04-19T11:04:13.480Z,1.60
2023-04-19T11:28:06.730Z,1.80
2023-04-19T11:33:15.836Z,2.83
2023-04-19T11:38:21.605Z,2.00
2023-04-19T11:49:05.703Z,1.93
2023-04-19T11:54:18.747Z,2.05
2023-04-19T11:59:24.858Z,1.97
2023-04-19T12:04:38.952Z,2.23
2023-04-19T12:09:52.713Z,1.77
2023-04-19T12:14:59.278Z,2.17
2023-04-19T12:20:09.276Z,2.37
2023-04-19T12:25:14.927Z,2.33
2023-04-19T12:30:20.960Z,2.00
2023-04-19T12:35:30.488Z,2.00
2023-04-19T12:40:37.128Z,1.95
2023-04-19T12:45:42.885Z,2.30
2023-04-19T12:50:52.119Z,1.77
2023-04-19T12:55:58.095Z,2.58
2023-04-19T13:01:04.359Z,2.73
2023-04-19T13:06:14.954Z,2.60
2023-04-19T13:11:23.590Z,2.75
2023-04-19T13:16:29.402Z,2.73
2023-04-19T13:21:40.624Z,2.90
2023-04-19T13:26:55.158Z,2.97
2023-04-19T13:32:01.030Z,3.53
2023-04-19T13:37:11.593Z,2.93
2023-04-19T13:42:20.492Z,3.00
2023-04-19T13:47:30.326Z,3.00
2023-04-19T13:52:41.624Z,3.50
2023-04-19T13:57:57.153Z,2.50
2023-04-19T14:03:06.140Z,3.10
2023-04-19T14:08:16.837Z,3.13
2023-04-19T14:14:32.316Z,3.20
2023-04-19T14:24:56.582Z,3.30
2023-04-19T14:30:09.281Z,3.22
2023-04-19T14:35:17.940Z,2.80
2023-04-19T14:40:26.604Z,2.77
2023-04-19T14:45:32.580Z,3.13
2023-04-19T14:50:38.379Z,3.00
2023-04-19T14:55:46.749Z,2.50
2023-04-19T15:00:52.525Z,2.30
2023-04-19T15:05:58.179Z,2.30
2023-04-19T15:11:06.289Z,2.30
2023-04-19T15:16:12.224Z,2.20
2023-04-19T15:21:17.844Z,2.10
2023-04-19T15:26:26.426Z,2.23
2023-04-19T15:31:32.015Z,2.10
2023-04-19T15:36:37.687Z,1.80
2023-04-19T15:41:45.858Z,2.00
2023-04-19T15:46:52.442Z,1.83
2023-04-19T15:51:58.288Z,1.83
2023-04-19T15:57:06.750Z,2.00
2023-04-19T16:02:12.359Z,1.52
2023-04-19T16:07:17.982Z,1.83
2023-04-19T16:12:26.510Z,1.60
2023-04-19T16:17:31.987Z,2.00
2023-04-19T16:22:37.590Z,2.10
2023-04-19T16:27:47.714Z,1.80
2023-04-19T16:32:53.464Z,1.60
2023-04-19T16:38:04.550Z,1.80
2023-04-19T16:43:12.733Z,1.27
2023-04-19T16:48:18.513Z,1.58
2023-04-19T16:53:24.097Z,1.60
2023-04-19T16:58:42.588Z,1.80
2023-04-19T17:03:50.422Z,1.40
2023-04-19T17:08:56.350Z,1.60
2023-04-19T17:14:04.684Z,1.40
2023-04-19T17:19:10.275Z,1.98
2023-04-19T17:24:21.106Z,1.37
2023-04-19T17:29:29.829Z,1.40
2023-04-19T17:34:37.051Z,1.90
2023-04-19T17:39:42.668Z,1.50
2023-04-19T17:44:50.834Z,1.57
2023-04-19T17:50:08.537Z,1.60
2023-04-19T17:55:14.696Z,1.60
2023-04-19T18:00:33.669Z,1.40
2023-04-19T18:05:43.061Z,1.70
2023-04-19T18:10:48.696Z,1.53
2023-04-19T18:15:56.967Z,1.60
2023-04-19T18:21:06.746Z,1.73
2023-04-19T18:26:12.584Z,2.00
2023-04-19T18:31:20.833Z,2.10
2023-04-19T18:36:28.305Z,1.95
2023-04-19T18:41:34.091Z,1.87
2023-04-19T18:46:42.267Z,2.10
2023-04-19T18:51:47.830Z,1.73
2023-04-19T19:02:05.735Z,2.10
2023-04-19T19:07:27.672Z,2.08
2023-04-19T19:12:37.065Z,1.73
2023-04-19T19:17:49.226Z,2.20
2023-04-19T19:22:55.559Z,2.20
2023-04-19T19:33:12.164Z,2.23
2023-04-19T19:38:17.660Z,2.42
2023-04-19T19:43:32.538Z,2.50
2023-04-19T19:48:42.674Z,1.97
2023-04-19T19:53:48.569Z,2.40
2023-04-19T19:58:54.451Z,2.43
2023-04-19T20:04:03.060Z,2.70
2023-04-19T20:09:09.466Z,2.60
2023-04-19T20:14:15.123Z,2.57
2023-04-19T20:19:24.700Z,2.83
2023-04-19T20:24:31.983Z,2.58
2023-04-19T20:29:37.565Z,2.33
2023-04-19T20:34:46.024Z,2.60
2023-04-19T20:39:52.208Z,2.60
2023-04-19T20:44:57.985Z,2.53
2023-04-19T20:50:06.261Z,2.67
2023-04-19T20:55:13.748Z,2.97
2023-04-19T21:00:20.516Z,2.57
2023-04-19T21:05:28.954Z,2.63
2023-04-19T21:10:34.549Z,2.70
2023-04-19T21:15:40.111Z,2.30
2023-04-19T21:20:48.438Z,2.65
2023-04-19T21:25:54.332Z,2.40
2023-04-19T21:31:00.189Z,2.13
2023-04-19T21:36:09.145Z,2.58
2023-04-19T21:41:14.651Z,3.23
2023-04-19T21:46:20.522Z,2.60
2023-04-19T21:51:29.907Z,2.70
2023-04-19T21:56:35.500Z,2.83
2023-04-19T22:01:40.961Z,2.93
2023-04-19T22:06:49.667Z,3.20
2023-04-19T22:11:55.479Z,2.88
2023-04-19T22:17:02.912Z,2.50
2023-04-19T22:22:11.112Z,2.70
2023-04-19T22:27:16.572Z,2.75
2023-04-19T22:32:22.475Z,2.43
2023-04-19T22:37:30.934Z,2.30
2023-04-19T22:42:37.377Z,2.60
2023-04-19T22:47:42.941Z,2.57
2023-04-19T22:52:51.078Z,2.80
2023-04-19T22:57:56.631Z,2.60
2023-04-19T23:03:02.628Z,2.80
2023-04-19T23:08:11.144Z,2.63
2023-04-19T23:13:17.193Z,2.20
2023-04-19T23:18:22.613Z,2.40
2023-04-19T23:23:30.783Z,2.40
2023-04-19T23:28:36.512Z,2.70
2023-04-19T23:33:42.061Z,2.33
2023-04-19T23:38:50.294Z,2.22
2023-04-19T23:43:56.205Z,2.17
2023-04-19T23:49:01.909Z,2.40
2023-04-19T23:54:10.178Z,2.47
2023-04-19T23:59:15.904Z,2.42
